createdAt,value
2018-02-13T00:00:52.868Z,7.85
2018-02-13T00:03:21.328Z,8.88
2018-02-13T00:05:48.943Z,7.87
2018-02-13T00:08:17.521Z,8.55
2018-02-13T00:10:45.910Z,7.50
2018-02-13T00:13:14.297Z,7.15
2018-02-13T00:15:42.673Z,8.10
2018-02-13T00:18:11.207Z,7.78
2018-02-13T00:20:39.628Z,7.25
2018-02-13T00:23:07.211Z,7.60
2018-02-13T00:25:34.795Z,8.77
2018-02-13T00:28:02.419Z,6.07
2018-02-13T00:30:30.036Z,8.50
2018-02-13T00:32:57.681Z,7.30
2018-02-13T00:35:25.326Z,7.18
2018-02-13T00:37:53.828Z,7.75
2018-02-13T00:40:21.449Z,8.27
2018-02-13T00:42:49.066Z,7.85
2018-02-13T00:45:16.683Z,7.37
2018-02-13T00:47:45.082Z,8.20
2018-02-13T00:50:12.737Z,8.18
2018-02-13T00:52:40.362Z,7.72
2018-02-13T00:55:07.947Z,8.85
2018-02-13T00:57:36.276Z,9.23
2018-02-13T01:00:03.863Z,8.60
2018-02-13T01:02:31.447Z,8.02
2018-02-13T01:04:59.039Z,7.45
2018-02-13T01:07:26.632Z,9.52
2018-02-13T01:09:54.743Z,8.75
2018-02-13T01:12:22.331Z,8.48
2018-02-13T01:14:50.901Z,9.00
2018-02-13T01:17:19.196Z,9.40
2018-02-13T01:19:46.822Z,9.70
2018-02-13T01:22:14.407Z,8.93
2018-02-13T01:24:41.982Z,8.05
2018-02-13T01:27:10.273Z,8.60
2018-02-13T01:29:38.565Z,9.30
2018-02-13T01:32:06.982Z,10.50
2018-02-13T01:34:34.576Z,9.40
2018-02-13T01:37:02.166Z,9.52
2018-02-13T01:39:29.767Z,10.52
2018-02-13T01:41:57.353Z,8.98
2018-02-13T01:44:25.726Z,10.17
2018-02-13T01:46:53.311Z,9.18
2018-02-13T01:49:20.894Z,9.73
2018-02-13T01:51:48.478Z,9.98
2018-02-13T01:54:16.159Z,8.38
2018-02-13T01:56:43.743Z,9.90
2018-02-13T01:59:11.339Z,8.77
2018-02-13T02:01:38.932Z,8.70
2018-02-13T02:04:06.519Z,8.90
2018-02-13T02:06:34.105Z,9.35
2018-02-13T02:09:01.738Z,9.63
2018-02-13T02:11:29.382Z,10.10
2018-02-13T02:13:56.960Z,8.63
2018-02-13T02:16:25.482Z,9.82
2018-02-13T02:18:53.860Z,11.02
2018-02-13T02:21:22.182Z,9.95
2018-02-13T02:23:51.181Z,9.15
2018-02-13T02:26:18.775Z,10.13
2018-02-13T02:28:46.423Z,11.12
2018-02-13T02:31:14.851Z,8.77
2018-02-13T02:33:42.468Z,10.05
2018-02-13T02:36:10.099Z,11.10
2018-02-13T02:38:37.691Z,11.07
2018-02-13T02:41:05.289Z,11.73
2018-02-13T02:43:32.882Z,12.05
2018-02-13T02:46:00.476Z,13.33
2018-02-13T02:48:28.079Z,11.50
2018-02-13T02:50:56.285Z,14.50
2018-02-13T02:53:23.965Z,10.82
2018-02-13T02:55:51.565Z,11.38
2018-02-13T02:58:19.217Z,13.20
2018-02-13T03:00:46.824Z,12.13
2018-02-13T03:03:14.447Z,11.85
2018-02-13T03:05:42.078Z,14.00
2018-02-13T03:08:09.671Z,14.75
2018-02-13T03:10:37.304Z,11.63
2018-02-13T03:13:04.942Z,13.65
2018-02-13T03:15:32.541Z,15.15
2018-02-13T03:18:00.127Z,14.15
2018-02-13T03:20:27.815Z,15.95
2018-02-13T03:22:56.251Z,13.70
2018-02-13T03:25:23.848Z,13.90
2018-02-13T03:27:51.511Z,14.52
2018-02-13T03:30:19.144Z,16.50
2018-02-13T03:32:46.735Z,15.27
2018-02-13T03:35:14.404Z,15.10
2018-02-13T03:37:41.996Z,14.15
2018-02-13T03:40:09.636Z,14.70
2018-02-13T03:42:37.234Z,14.82
2018-02-13T03:45:04.876Z,15.13
2018-02-13T03:47:32.562Z,16.60
2018-02-13T03:50:00.160Z,14.77
2018-02-13T03:52:27.790Z,16.70
2018-02-13T03:54:55.385Z,14.87
2018-02-13T03:57:23.020Z,16.73
2018-02-13T03:59:50.671Z,16.10
2018-02-13T04:02:18.334Z,15.95
2018-02-13T04:04:45.967Z,17.17
2018-02-13T04:07:13.597Z,15.15
2018-02-13T04:09:41.178Z,16.77
2018-02-13T04:12:08.782Z,16.33
2018-02-13T04:14:36.414Z,17.52
2018-02-13T04:17:04.019Z,16.62
2018-02-13T04:19:31.619Z,16.50
2018-02-13T04:21:59.332Z,17.42
2018-02-13T04:24:26.936Z,15.88
2018-02-13T04:26:54.575Z,17.42
2018-02-13T04:29:22.174Z,18.30
2018-02-13T04:31:49.771Z,16.73
2018-02-13T04:34:17.367Z,19.02
2018-02-13T04:36:44.963Z,17.60
2018-02-13T04:39:12.556Z,18.80
2018-02-13T04:41:40.188Z,18.45
2018-02-13T04:44:07.823Z,17.77
2018-02-13T04:46:35.414Z,18.80
2018-02-13T04:49:03.052Z,18.52
2018-02-13T04:51:30.638Z,19.97
2018-02-13T04:53:58.275Z,17.12
2018-02-13T04:56:25.896Z,15.60
2018-02-13T04:58:53.527Z,17.62
2018-02-13T05:01:21.147Z,19.52
2018-02-13T05:03:48.782Z,16.52
2018-02-13T05:06:16.380Z,18.30
2018-02-13T05:08:44.006Z,20.17
2018-02-13T05:11:11.598Z,18.48
2018-02-13T05:13:39.227Z,20.40
2018-02-13T05:16:06.850Z,19.15
2018-02-13T05:18:34.512Z,19.85
2018-02-13T05:21:02.915Z,17.65
2018-02-13T05:23:30.508Z,16.25
2018-02-13T05:25:58.101Z,17.65
2018-02-13T05:28:25.763Z,15.98
2018-02-13T05:30:53.360Z,19.85
2018-02-13T05:33:20.963Z,17.83
2018-02-13T05:35:48.571Z,18.15
2018-02-13T05:38:16.165Z,18.33
2018-02-13T05:40:43.761Z,16.52
2018-02-13T05:43:11.354Z,16.75
2018-02-13T05:45:38.993Z,18.12
2018-02-13T05:48:07.360Z,18.90
2018-02-13T05:50:34.954Z,18.62
2018-02-13T05:53:02.541Z,20.15
2018-02-13T05:55:30.131Z,20.55
2018-02-13T05:57:57.719Z,19.60
2018-02-13T06:00:25.312Z,18.52
2018-02-13T06:02:52.903Z,20.95
2018-02-13T06:05:20.588Z,19.17
2018-02-13T06:07:48.217Z,17.70
2018-02-13T06:10:15.812Z,20.27
2018-02-13T06:12:43.395Z,17.50
2018-02-13T06:15:10.984Z,19.80
2018-02-13T06:17:38.574Z,19.65
2018-02-13T06:20:06.202Z,21.20
2018-02-13T06:22:33.879Z,21.42
2018-02-13T06:25:01.468Z,20.00
2018-02-13T06:27:29.063Z,19.62
2018-02-13T06:29:56.678Z,20.33
2018-02-13T06:32:24.315Z,19.67
2018-02-13T06:34:51.903Z,20.77
2018-02-13T06:37:19.498Z,21.98
2018-02-13T06:39:47.139Z,19.15
2018-02-13T06:42:14.955Z,23.00
2018-02-13T06:44:42.540Z,20.85
2018-02-13T06:47:10.130Z,21.23
2018-02-13T06:49:37.719Z,20.40
2018-02-13T06:52:05.310Z,20.10
2018-02-13T06:54:32.904Z,20.77
2018-02-13T06:57:00.500Z,19.85
2018-02-13T06:59:28.130Z,21.98
2018-02-13T07:01:55.785Z,20.62
2018-02-13T07:04:23.377Z,20.42
2018-02-13T07:06:50.962Z,22.33
2018-02-13T07:09:18.553Z,21.17
2018-02-13T07:11:46.143Z,21.90
2018-02-13T07:14:13.728Z,20.58
2018-02-13T07:16:41.321Z,22.25
2018-02-13T07:19:08.913Z,21.55
2018-02-13T07:21:36.503Z,22.15
2018-02-13T07:24:04.099Z,17.33
2018-02-13T07:26:31.683Z,21.90
2018-02-13T07:28:59.419Z,24.08
2018-02-13T07:31:27.623Z,21.10
2018-02-13T07:33:55.217Z,20.23
2018-02-13T07:36:22.847Z,21.42
2018-02-13T07:38:50.472Z,20.77
2018-02-13T07:41:18.059Z,21.83
2018-02-13T07:43:45.646Z,20.83
2018-02-13T07:46:13.235Z,21.52
2018-02-13T07:48:40.922Z,22.75
2018-02-13T07:51:08.506Z,21.55
2018-02-13T07:53:36.096Z,19.98
2018-02-13T07:56:03.707Z,22.25
2018-02-13T07:58:31.303Z,20.23
2018-02-13T08:00:58.932Z,19.95
2018-02-13T08:03:26.631Z,21.02
2018-02-13T08:05:54.227Z,21.62
2018-02-13T08:08:21.854Z,18.85
2018-02-13T08:10:49.448Z,20.95
2018-02-13T08:13:17.035Z,20.20
2018-02-13T08:15:44.634Z,19.45
2018-02-13T08:18:12.229Z,19.42
2018-02-13T08:20:39.819Z,20.45
2018-02-13T08:23:07.522Z,19.62
2018-02-13T08:25:35.116Z,19.83
2018-02-13T08:28:02.707Z,20.70
2018-02-13T08:30:30.303Z,17.35
2018-02-13T08:32:57.894Z,19.50
2018-02-13T08:35:25.479Z,17.87
2018-02-13T08:37:53.071Z,19.42
2018-02-13T08:40:20.959Z,18.95
2018-02-13T08:42:48.551Z,19.45
2018-02-13T08:45:16.140Z,19.10
2018-02-13T08:47:43.846Z,18.60
2018-02-13T08:50:11.430Z,19.15
2018-02-13T08:52:39.084Z,19.25
2018-02-13T08:55:06.671Z,21.00
2018-02-13T08:57:34.304Z,18.08
2018-02-13T09:00:01.900Z,21.77
2018-02-13T09:02:29.504Z,17.67
2018-02-13T09:04:57.099Z,21.92
2018-02-13T09:07:24.678Z,16.90
2018-02-13T09:09:52.263Z,19.20
2018-02-13T09:12:19.845Z,21.73
2018-02-13T09:14:47.426Z,17.40
2018-02-13T09:17:15.011Z,18.00
2018-02-13T09:19:42.591Z,20.27
2018-02-13T09:22:10.173Z,18.63
2018-02-13T09:24:37.791Z,17.80
2018-02-13T09:27:05.400Z,17.40
2018-02-13T09:29:32.978Z,18.40
2018-02-13T09:32:00.561Z,18.50
2018-02-13T09:34:28.214Z,17.77
2018-02-13T09:36:55.806Z,17.60
2018-02-13T09:39:23.378Z,17.17
2018-02-13T09:41:51.832Z,16.30
2018-02-13T09:44:19.406Z,17.80
2018-02-13T09:46:47.038Z,16.03
2018-02-13T09:49:14.803Z,14.97
2018-02-13T09:51:42.383Z,17.03
2018-02-13T09:54:09.959Z,19.03
2018-02-13T09:56:37.539Z,16.90
2018-02-13T09:59:05.166Z,16.70
2018-02-13T10:01:33.533Z,17.70
2018-02-13T10:04:01.209Z,16.03
2018-02-13T10:06:28.815Z,15.50
2018-02-13T10:08:56.434Z,16.67
2018-02-13T10:11:24.161Z,16.60
2018-02-13T10:13:51.738Z,16.83
2018-02-13T10:16:19.370Z,17.10
2018-02-13T10:18:46.955Z,15.83
2018-02-13T10:21:14.644Z,15.97
2018-02-13T10:23:42.291Z,15.90
2018-02-13T10:26:09.873Z,15.43
2018-02-13T10:28:37.633Z,16.17
2018-02-13T10:31:05.215Z,14.70
2018-02-13T10:33:32.794Z,16.10
2018-02-13T10:36:01.318Z,14.70
2018-02-13T10:38:28.904Z,15.07
2018-02-13T10:40:56.680Z,13.53
2018-02-13T10:43:24.275Z,12.07
2018-02-13T10:45:52.299Z,14.03
2018-02-13T10:48:19.878Z,12.93
2018-02-13T10:50:47.459Z,14.07
2018-02-13T10:53:15.075Z,14.40
2018-02-13T10:55:42.664Z,14.53
2018-02-13T10:58:10.244Z,14.40
2018-02-13T11:00:43.486Z,15.50
2018-02-13T11:03:11.161Z,13.70
2018-02-13T11:05:38.735Z,13.10
2018-02-13T11:08:06.310Z,13.23
2018-02-13T11:10:33.939Z,11.53
2018-02-13T11:13:01.523Z,11.83
2018-02-13T11:15:29.112Z,12.93
2018-02-13T11:17:56.703Z,12.60
2018-02-13T11:20:24.278Z,11.33
2018-02-13T11:22:51.862Z,10.80
2018-02-13T11:25:20.218Z,10.17
2018-02-13T11:27:47.802Z,10.50
2018-02-13T11:30:15.411Z,9.13
2018-02-13T11:32:42.995Z,7.90
2018-02-13T11:35:10.677Z,8.20
2018-02-13T11:37:38.255Z,8.67
2018-02-13T11:40:05.875Z,9.10
2018-02-13T11:42:33.564Z,8.40
2018-02-13T11:45:01.150Z,7.90
2018-02-13T11:47:28.723Z,8.10
2018-02-13T11:49:56.302Z,7.83
2018-02-13T11:52:23.876Z,7.87
2018-02-13T11:54:51.454Z,7.23
2018-02-13T11:57:19.971Z,8.10
2018-02-13T11:59:47.550Z,6.77
2018-02-13T12:02:15.174Z,7.00
2018-02-13T12:04:42.752Z,7.13
2018-02-13T12:07:10.326Z,7.10
2018-02-13T12:09:37.942Z,7.10
2018-02-13T12:12:05.519Z,6.70
2018-02-13T12:14:33.103Z,5.73
2018-02-13T12:17:00.676Z,6.03
2018-02-13T12:19:28.254Z,6.47
2018-02-13T12:21:55.837Z,6.30
2018-02-13T12:24:24.014Z,7.10
2018-02-13T12:26:51.590Z,7.97
2018-02-13T12:29:19.174Z,6.30
2018-02-13T12:31:46.747Z,6.70
2018-02-13T12:34:14.384Z,6.50
2018-02-13T12:36:41.994Z,5.87
2018-02-13T12:39:09.614Z,5.93
2018-02-13T12:41:37.183Z,6.10
2018-02-13T12:44:04.755Z,7.00
2018-02-13T12:46:32.330Z,6.33
2018-02-13T12:48:59.945Z,6.93
2018-02-13T12:51:27.557Z,6.83
2018-02-13T12:53:55.127Z,6.00
2018-02-13T12:56:22.697Z,6.37
2018-02-13T12:58:50.279Z,7.20
2018-02-13T13:01:17.955Z,5.70
2018-02-13T13:03:45.528Z,7.10
2018-02-13T13:06:13.102Z,7.53
2018-02-13T13:08:40.791Z,7.30
2018-02-13T13:11:08.358Z,7.07
2018-02-13T13:13:35.932Z,7.20
2018-02-13T13:16:03.506Z,7.40
2018-02-13T13:18:31.118Z,7.10
2018-02-13T13:20:58.713Z,7.77
2018-02-13T13:23:26.344Z,7.70
2018-02-13T13:25:54.795Z,8.77
2018-02-13T13:28:22.464Z,8.30
2018-02-13T13:30:50.082Z,8.23
2018-02-13T13:33:17.662Z,8.97
2018-02-13T13:35:45.278Z,8.70
2018-02-13T13:38:12.859Z,8.97
2018-02-13T13:40:40.562Z,8.00
2018-02-13T13:43:08.231Z,7.93
2018-02-13T13:45:35.858Z,7.87
2018-02-13T13:48:03.443Z,8.73
2018-02-13T13:50:31.029Z,8.03
2018-02-13T13:52:58.649Z,7.53
2018-02-13T13:55:26.232Z,7.77
2018-02-13T13:57:53.874Z,8.10
2018-02-13T14:00:21.454Z,7.90
2018-02-13T14:02:49.103Z,7.93
2018-02-13T14:05:16.684Z,8.90
2018-02-13T14:07:44.291Z,9.07
2018-02-13T14:10:11.883Z,8.97
2018-02-13T14:12:39.475Z,8.20
2018-02-13T14:15:07.050Z,8.80
2018-02-13T14:17:34.630Z,8.50
2018-02-13T14:20:02.211Z,7.77
2018-02-13T14:22:29.891Z,8.97
2018-02-13T14:24:57.503Z,9.77
2018-02-13T14:27:25.076Z,8.27
2018-02-13T14:29:52.654Z,8.90
2018-02-13T14:32:20.230Z,9.90
2018-02-13T14:34:47.803Z,9.00
2018-02-13T14:37:15.422Z,9.40
2018-02-13T14:39:43.000Z,8.37
2018-02-13T14:42:10.582Z,8.60
2018-02-13T14:44:38.197Z,9.67
2018-02-13T14:47:05.775Z,9.00
2018-02-13T14:49:33.407Z,9.33
2018-02-13T14:52:01.052Z,10.80
2018-02-13T14:54:28.641Z,9.03
2018-02-13T14:56:56.244Z,8.73
2018-02-13T14:59:23.821Z,8.60
2018-02-13T15:01:51.418Z,8.77
2018-02-13T15:04:18.995Z,7.90
2018-02-13T15:06:46.612Z,8.00
2018-02-13T15:09:14.806Z,8.43
2018-02-13T15:11:42.436Z,8.83
2018-02-13T15:14:10.014Z,8.30
2018-02-13T15:16:37.612Z,6.87
2018-02-13T15:19:05.217Z,6.90
2018-02-13T15:21:32.854Z,6.87
2018-02-13T15:24:00.432Z,6.40
2018-02-13T15:26:28.050Z,7.13
2018-02-13T15:28:55.626Z,7.00
2018-02-13T15:31:23.455Z,6.70
2018-02-13T15:33:51.053Z,7.83
2018-02-13T15:36:18.647Z,7.50
2018-02-13T15:38:46.219Z,7.50
2018-02-13T15:41:13.790Z,6.47
2018-02-13T15:43:42.631Z,6.87
2018-02-13T15:46:10.211Z,6.93
2018-02-13T15:48:37.855Z,7.73
2018-02-13T15:51:05.439Z,8.23
2018-02-13T15:53:33.064Z,8.37
2018-02-13T15:56:00.718Z,7.17
2018-02-13T15:58:28.356Z,7.80
2018-02-13T16:00:55.967Z,8.23
2018-02-13T16:03:23.543Z,8.00
2018-02-13T16:05:51.126Z,7.30
2018-02-13T16:08:18.726Z,7.27
2018-02-13T16:10:46.299Z,6.97
2018-02-13T16:13:13.874Z,6.30
2018-02-13T16:15:41.491Z,7.40
2018-02-13T16:18:09.058Z,7.20
2018-02-13T16:20:36.654Z,7.97
2018-02-13T16:23:04.454Z,9.90
2018-02-13T16:25:32.032Z,9.77
2018-02-13T16:27:59.607Z,9.23
2018-02-13T16:30:27.189Z,7.30
2018-02-13T16:32:54.767Z,7.93
2018-02-13T16:35:22.343Z,8.70
2018-02-13T16:37:49.924Z,8.80
2018-02-13T16:40:17.649Z,9.57
2018-02-13T16:42:45.247Z,10.10
2018-02-13T16:45:12.824Z,9.07
2018-02-13T16:47:40.485Z,10.13
2018-02-13T16:50:08.104Z,9.63
2018-02-13T16:52:35.678Z,9.70
2018-02-13T16:55:03.296Z,11.30
2018-02-13T16:57:30.916Z,11.23
2018-02-13T16:59:58.494Z,10.60
2018-02-13T17:02:26.114Z,9.20
2018-02-13T17:04:53.701Z,8.50
2018-02-13T17:07:21.330Z,9.13
2018-02-13T17:09:49.835Z,8.43
2018-02-13T17:12:17.427Z,7.75
2018-02-13T17:14:45.020Z,7.82
2018-02-13T17:17:12.607Z,6.90
2018-02-13T17:19:40.205Z,8.48
2018-02-13T17:22:07.812Z,7.35
2018-02-13T17:24:35.407Z,8.02
2018-02-13T17:27:03.033Z,8.88
2018-02-13T17:29:30.627Z,9.40
2018-02-13T17:31:58.227Z,9.45
2018-02-13T17:34:25.854Z,9.82
2018-02-13T17:36:53.437Z,11.40
2018-02-13T17:39:21.028Z,10.77
2018-02-13T17:41:48.623Z,8.70
2018-02-13T17:44:16.288Z,9.68
2018-02-13T17:46:43.885Z,11.52
2018-02-13T17:49:11.558Z,14.05
2018-02-13T17:51:39.174Z,11.15
2018-02-13T17:54:06.823Z,12.77
2018-02-13T17:56:34.519Z,12.80
2018-02-13T17:59:02.112Z,13.93
2018-02-13T18:01:29.712Z,16.00
2018-02-13T18:03:57.308Z,14.07
2018-02-13T18:06:24.941Z,14.25
2018-02-13T18:08:52.530Z,16.02
2018-02-13T18:11:20.136Z,14.98
2018-02-13T18:13:47.741Z,16.00
2018-02-13T18:16:15.330Z,14.45
2018-02-13T18:18:42.921Z,15.48
2018-02-13T18:21:10.526Z,15.00
2018-02-13T18:23:38.220Z,13.45
2018-02-13T18:26:05.836Z,11.90
2018-02-13T18:28:33.497Z,11.52
2018-02-13T18:31:01.138Z,11.55
2018-02-13T18:33:29.905Z,12.63
2018-02-13T18:35:57.491Z,12.45
2018-02-13T18:38:25.118Z,14.02
2018-02-13T18:40:52.769Z,13.62
2018-02-13T18:43:20.367Z,10.55
2018-02-13T18:45:47.959Z,11.12
2018-02-13T18:48:15.551Z,13.15
2018-02-13T18:50:43.144Z,12.55
2018-02-13T18:55:38.279Z,11.85
2018-02-13T18:58:06.039Z,10.68
2018-02-13T19:00:33.681Z,10.60
2018-02-13T19:03:01.274Z,12.85
2018-02-13T19:05:28.864Z,13.98
2018-02-13T19:07:56.459Z,13.43
2018-02-13T19:10:24.048Z,12.43
2018-02-13T19:12:51.686Z,12.35
2018-02-13T19:15:19.335Z,11.63
2018-02-13T19:17:46.922Z,14.43
2018-02-13T19:20:14.515Z,13.65
2018-02-13T19:22:42.116Z,14.05
2018-02-13T19:25:09.708Z,14.10
2018-02-13T19:27:37.356Z,16.27
2018-02-13T19:30:04.954Z,14.23
2018-02-13T19:32:32.687Z,12.98
2018-02-13T19:35:00.343Z,13.60
2018-02-13T19:37:27.963Z,13.13
2018-02-13T19:39:56.030Z,12.00
2018-02-13T19:42:23.675Z,12.18
2018-02-13T19:44:51.268Z,12.90
2018-02-13T19:47:18.894Z,12.40
2018-02-13T19:49:46.511Z,12.65
2018-02-13T19:52:14.313Z,15.13
2018-02-13T19:54:41.947Z,17.20
2018-02-13T19:57:09.535Z,17.35
2018-02-13T19:59:37.199Z,18.80
2018-02-13T20:02:04.792Z,20.37
2018-02-13T20:04:32.388Z,16.92
2018-02-13T20:07:00.167Z,14.60
2018-02-13T20:09:27.799Z,17.50
2018-02-13T20:11:56.043Z,13.55
2018-02-13T20:14:23.754Z,13.68
2018-02-13T20:16:51.652Z,14.20
2018-02-13T20:19:19.302Z,15.02
2018-02-13T20:21:46.931Z,13.90
2018-02-13T20:24:15.383Z,14.05
2018-02-13T20:26:43.620Z,13.82
2018-02-13T20:29:11.210Z,13.20
2018-02-13T20:31:38.843Z,12.18
2018-02-13T20:34:06.437Z,13.50
2018-02-13T20:36:34.027Z,13.90
2018-02-13T20:39:01.611Z,11.20
2018-02-13T20:41:29.208Z,12.75
2018-02-13T20:43:57.795Z,12.88
2018-02-13T20:46:25.391Z,12.43
2018-02-13T20:48:53.020Z,12.90
2018-02-13T20:51:20.648Z,13.90
2018-02-13T20:53:48.234Z,13.13
2018-02-13T20:56:15.934Z,14.40
2018-02-13T20:58:43.518Z,13.50
2018-02-13T21:01:11.209Z,13.52
2018-02-13T21:03:39.057Z,14.52
2018-02-13T21:06:06.666Z,13.93
2018-02-13T21:08:34.259Z,12.15
2018-02-13T21:11:01.880Z,11.93
2018-02-13T21:13:29.476Z,12.37
2018-02-13T21:15:57.147Z,11.50
2018-02-13T21:18:24.775Z,13.32
2018-02-13T21:20:52.633Z,12.02
2018-02-13T21:23:20.355Z,12.73
2018-02-13T21:25:47.943Z,13.95
2018-02-13T21:28:15.629Z,12.73
2018-02-13T21:30:43.251Z,12.60
2018-02-13T21:33:11.577Z,11.85
2018-02-13T21:35:39.162Z,13.35
2018-02-13T21:38:06.795Z,13.82
2018-02-13T21:40:34.435Z,12.63
2018-02-13T21:43:02.068Z,14.27
2018-02-13T21:45:29.655Z,14.00
2018-02-13T21:47:57.272Z,13.82
2018-02-13T21:50:24.887Z,15.77
2018-02-13T21:52:52.474Z,18.48
2018-02-13T21:55:20.107Z,19.00
2018-02-13T21:57:47.694Z,19.73
2018-02-13T22:00:15.282Z,16.55
2018-02-13T22:02:43.803Z,14.30
2018-02-13T22:05:11.397Z,15.50
2018-02-13T22:07:38.991Z,13.90
2018-02-13T22:10:06.583Z,15.23
2018-02-13T22:12:34.167Z,14.48
2018-02-13T22:15:01.868Z,13.60
2018-02-13T22:17:29.458Z,15.20
2018-02-13T22:19:57.055Z,14.93
2018-02-13T22:22:24.642Z,14.65
2018-02-13T22:24:52.236Z,13.77
2018-02-13T22:27:19.921Z,15.32
2018-02-13T22:29:47.498Z,14.87
2018-02-13T22:32:15.091Z,15.70
2018-02-13T22:34:42.682Z,14.38
2018-02-13T22:37:10.270Z,12.75
2018-02-13T22:39:37.860Z,15.07
2018-02-13T22:42:05.478Z,15.02
2018-02-13T22:44:33.142Z,13.45
2018-02-13T22:47:00.727Z,14.32
2018-02-13T22:49:28.315Z,13.68
2018-02-13T22:51:55.910Z,14.60
2018-02-13T22:54:23.499Z,15.65
2018-02-13T22:56:51.083Z,15.60
2018-02-13T22:59:18.724Z,15.70
2018-02-13T23:01:46.315Z,14.60
2018-02-13T23:04:13.907Z,14.80
2018-02-13T23:06:41.491Z,13.98
2018-02-13T23:09:09.083Z,17.65
2018-02-13T23:11:36.672Z,14.10
2018-02-13T23:14:04.266Z,12.82
2018-02-13T23:16:31.851Z,13.77
2018-02-13T23:18:59.448Z,12.98
2018-02-13T23:21:27.039Z,14.07
2018-02-13T23:23:54.631Z,15.50
2018-02-13T23:26:22.324Z,15.82
2018-02-13T23:28:49.915Z,14.50
2018-02-13T23:31:17.507Z,17.17
2018-02-13T23:33:45.135Z,15.75
2018-02-13T23:36:12.772Z,13.55
2018-02-13T23:38:40.462Z,13.80
2018-02-13T23:41:08.056Z,15.95
2018-02-13T23:43:35.642Z,15.55
2018-02-13T23:46:03.270Z,13.88
2018-02-13T23:48:30.859Z,14.10
2018-02-13T23:50:58.443Z,15.20
2018-02-13T23:53:26.032Z,14.35
2018-02-13T23:55:53.639Z,16.00
2018-02-13T23:58:21.227Z,16.60
